Time;durP1;ratioP1;P1;durP2;ratioP2;P2;SDS_P1;SDS_P2;PMS_P1;PMS_P2;Temp;Humidity;BMP_temperature;BMP_pressure;BME280_temperature;BME280_humidity;BME280_pressure;Samples;Min_cycle;Max_cycle;Signal;HPM_P1;HPM_P2
2022/12/26 00:01:23;;;;;;;37.50;18.93;;;;;;;;;;4950313;29;20030;-78
2022/12/26 00:03:49;;;;;;;44.60;18.67;;;;;;;;;;4950742;29;20027;-78
2022/12/26 00:06:17;;;;;;;34.03;16.83;;;;;;;;;;4950573;28;20142;-78
2022/12/26 00:08:44;;;;;;;38.87;17.47;;;;;;;;;;4951989;28;20031;-78
2022/12/26 00:11:10;;;;;;;35.77;16.83;;;;;;;;;;4952039;28;20099;-78
2022/12/26 00:13:35;;;;;;;30.60;15.90;;;;;;;;;;4952035;28;20026;-78
2022/12/26 00:16:15;;;;;;;34.80;15.23;;;;;;;;;;4953296;29;20031;-78
2022/12/26 00:18:41;;;;;;;26.90;13.93;;;;;;;;;;4953608;28;20027;-78
2022/12/26 00:21:08;;;;;;;36.10;17.30;;;;;;;;;;4951307;29;20078;-78
2022/12/26 00:23:34;;;;;;;37.40;16.40;;;;;;;;;;4953681;28;20117;-77
2022/12/26 00:26:18;;;;;;;24.27;13.67;;;;;;;;;;4951185;29;20031;-77
2022/12/26 00:28:44;;;;;;;29.03;14.13;;;;;;;;;;4952002;28;20027;-77
2022/12/26 00:31:16;;;;;;;26.80;14.03;;;;;;;;;;4966740;28;20031;-77
2022/12/26 00:33:42;;;;;;;20.10;12.20;;;;;;;;;;4966850;28;20023;-77
2022/12/26 00:36:13;;;;;;;36.03;13.33;;;;;;;;;;4951656;28;20035;-77
2022/12/26 00:38:40;;;;;;;33.20;15.07;;;;;;;;;;4951518;28;20019;-77
2022/12/26 00:41:07;;;;;;;33.47;14.10;;;;;;;;;;4934290;29;20036;-78
2022/12/26 00:43:33;;;;;;;39.93;16.13;;;;;;;;;;4952302;28;20051;-77
2022/12/26 00:45:59;;;;;;;38.23;16.80;;;;;;;;;;4954172;29;20038;-77
2022/12/26 00:48:25;;;;;;;34.90;16.53;;;;;;;;;;4955633;29;20055;-78
2022/12/26 00:50:50;;;;;;;35.77;16.77;;;;;;;;;;4938148;29;20480;-77
2022/12/26 00:53:16;;;;;;;24.57;11.87;;;;;;;;;;4955410;29;20046;-77
2022/12/26 00:55:42;;;;;;;22.80;10.90;;;;;;;;;;4955133;29;20027;-77
2022/12/26 00:58:07;;;;;;;21.63;11.00;;;;;;;;;;4953561;29;20205;-77
2022/12/26 01:00:33;;;;;;;32.73;15.43;;;;;;;;;;4954880;28;20027;-77
2022/12/26 01:02:58;;;;;;;34.37;14.63;;;;;;;;;;4954923;29;20082;-78
2022/12/26 01:05:24;;;;;;;37.03;15.60;;;;;;;;;;4937461;29;20038;-77
2022/12/26 01:07:49;;;;;;;27.77;13.27;;;;;;;;;;4937931;29;20560;-78
2022/12/26 01:10:15;;;;;;;18.10;8.60;;;;;;;;;;4955080;29;20027;-77
2022/12/26 01:12:41;;;;;;;21.63;9.37;;;;;;;;;;4938914;29;20090;-77
2022/12/26 01:15:07;;;;;;;21.00;8.70;;;;;;;;;;4938225;29;20626;-78
2022/12/26 01:17:33;;;;;;;25.37;9.73;;;;;;;;;;4953317;29;20019;-78
2022/12/26 01:19:58;;;;;;;18.57;10.00;;;;;;;;;;4953915;29;20034;-77
2022/12/26 01:22:26;;;;;;;17.37;8.20;;;;;;;;;;4954691;29;20031;-77
2022/12/26 01:24:55;;;;;;;18.87;9.20;;;;;;;;;;4954664;29;20538;-77
2022/12/26 01:27:21;;;;;;;22.17;9.37;;;;;;;;;;4953028;28;20093;-78
2022/12/26 01:29:47;;;;;;;21.87;9.43;;;;;;;;;;4953296;28;20081;-77
2022/12/26 01:32:13;;;;;;;19.13;9.63;;;;;;;;;;4954573;29;20031;-76
2022/12/26 01:34:39;;;;;;;21.93;9.27;;;;;;;;;;4952742;29;20042;-77
2022/12/26 01:37:05;;;;;;;21.10;9.60;;;;;;;;;;4938679;29;20023;-77
2022/12/26 01:39:30;;;;;;;22.33;9.40;;;;;;;;;;4968868;28;20034;-77
2022/12/26 01:41:56;;;;;;;20.20;9.10;;;;;;;;;;4954633;29;20114;-78
2022/12/26 01:44:52;;;;;;;19.43;9.87;;;;;;;;;;4953499;29;20061;-78
2022/12/26 01:47:21;;;;;;;22.80;10.27;;;;;;;;;;4953645;29;20030;-78
2022/12/26 01:49:51;;;;;;;23.47;9.00;;;;;;;;;;4954508;28;20022;-77
2022/12/26 01:52:42;;;;;;;23.97;10.13;;;;;;;;;;4969248;28;20073;-78
2022/12/26 01:55:11;;;;;;;18.52;9.02;;;;;;;;;;4957670;28;20042;-78
2022/12/26 01:57:42;;;;;;;22.27;9.90;;;;;;;;;;4954569;28;20093;-78
2022/12/26 02:00:09;;;;;;;20.38;9.02;;;;;;;;;;4969877;28;20508;-78
2022/12/26 02:05:32;;;;;;;21.20;9.00;;;;;;;;;;4969612;28;20058;-79
2022/12/26 02:05:32;;;;;;;22.67;10.20;;;;;;;;;;4955036;28;20530;-78
2022/12/26 02:08:00;;;;;;;20.43;8.30;;;;;;;;;;4969809;28;20114;-77
2022/12/26 02:10:27;;;;;;;18.03;7.67;;;;;;;;;;4954119;29;20460;-77
2022/12/26 02:12:53;;;;;;;18.77;7.57;;;;;;;;;;4954606;29;20031;-78
2022/12/26 02:15:19;;;;;;;12.43;5.83;;;;;;;;;;4954990;29;20118;-77
2022/12/26 02:17:44;;;;;;;10.20;6.00;;;;;;;;;;4953788;29;20351;-78
2022/12/26 02:20:15;;;;;;;16.53;6.53;;;;;;;;;;4954208;29;20143;-77
2022/12/26 02:23:05;;;;;;;11.02;5.32;;;;;;;;;;4954359;29;20065;-78
2022/12/26 02:26:01;;;;;;;20.63;6.37;;;;;;;;;;4954336;29;20101;-78
2022/12/26 02:28:47;;;;;;;14.80;6.73;;;;;;;;;;4953565;29;20122;-78
2022/12/26 02:31:34;;;;;;;16.55;6.20;;;;;;;;;;4944165;29;20035;-78
2022/12/26 02:34:16;;;;;;;14.43;6.13;;;;;;;;;;4969306;28;20055;-77
2022/12/26 02:37:00;;;;;;;9.43;4.90;;;;;;;;;;4954539;29;20118;-77
2022/12/26 02:39:37;;;;;;;10.47;5.53;;;;;;;;;;4953577;29;20042;-77
2022/12/26 02:42:35;;;;;;;10.55;5.93;;;;;;;;;;4937253;29;20038;-77
2022/12/26 02:48:40;;;;;;;13.77;5.70;;;;;;;;;;4938664;29;20041;-78
2022/12/26 03:14:21;;;;;;;12.43;4.47;;;;;;;;;;4953244;29;20121;-77
2022/12/26 03:19:56;;;;;;;9.83;4.40;;;;;;;;;;4953298;29;20074;-77
2022/12/26 03:22:31;;;;;;;6.70;4.40;;;;;;;;;;4937488;29;20039;-78
2022/12/26 03:27:47;;;;;;;9.07;4.70;;;;;;;;;;4953036;29;20105;-78
2022/12/26 03:32:57;;;;;;;11.35;5.40;;;;;;;;;;4953233;29;20058;-78
2022/12/26 03:35:26;;;;;;;9.23;4.67;;;;;;;;;;4952387;29;20440;-78
2022/12/26 03:38:00;;;;;;;10.70;5.17;;;;;;;;;;4952191;29;20027;-78
2022/12/26 04:44:17;;;;;;;10.02;4.30;;;;;;;;;;4951277;28;20054;-77
2022/12/26 04:46:46;;;;;;;9.50;4.70;;;;;;;;;;4951453;29;20027;-77
2022/12/26 04:52:01;;;;;;;12.77;5.17;;;;;;;;;;4951928;29;20038;-79
2022/12/26 04:54:27;;;;;;;9.40;4.70;;;;;;;;;;4950370;29;20023;-78
2022/12/26 04:56:53;;;;;;;10.68;4.75;;;;;;;;;;4951645;29;20031;-78
2022/12/26 04:59:19;;;;;;;13.97;5.00;;;;;;;;;;4951251;29;20038;-78
2022/12/26 05:10:16;;;;;;;10.02;4.80;;;;;;;;;;4951811;29;20040;-77
2022/12/26 05:12:41;;;;;;;7.47;4.22;;;;;;;;;;4952987;29;20276;-77
2022/12/26 05:15:08;;;;;;;9.82;5.25;;;;;;;;;;4935212;29;20568;-78
2022/12/26 05:28:40;;;;;;;6.72;4.03;;;;;;;;;;4951491;28;20090;-78
2022/12/26 05:31:07;;;;;;;7.35;3.90;;;;;;;;;;4952881;29;20054;-77
2022/12/26 05:36:20;;;;;;;9.40;4.10;;;;;;;;;;4955330;29;20053;-78
2022/12/26 05:38:47;;;;;;;9.38;4.55;;;;;;;;;;4955559;29;20023;-78
2022/12/26 05:41:15;;;;;;;7.97;3.33;;;;;;;;;;4954404;29;20031;-79
2022/12/26 05:43:40;;;;;;;9.43;3.75;;;;;;;;;;4937876;29;20054;-78
2022/12/26 05:46:06;;;;;;;9.10;3.58;;;;;;;;;;4956004;29;20027;-78
2022/12/26 05:48:31;;;;;;;6.78;3.70;;;;;;;;;;4937825;29;20079;-78
2022/12/26 05:50:59;;;;;;;11.20;3.47;;;;;;;;;;4954299;29;20034;-77
2022/12/26 05:53:24;;;;;;;5.78;3.58;;;;;;;;;;4953897;29;20027;-78
2022/12/26 05:55:50;;;;;;;6.68;3.47;;;;;;;;;;4937619;29;20097;-79
2022/12/26 05:58:15;;;;;;;6.07;3.72;;;;;;;;;;4955494;29;20082;-78
2022/12/26 06:00:41;;;;;;;3.97;2.97;;;;;;;;;;4954658;29;20031;-78
2022/12/26 06:03:06;;;;;;;5.80;3.67;;;;;;;;;;4953323;29;20023;-78
2022/12/26 06:05:33;;;;;;;7.07;3.65;;;;;;;;;;4953346;29;20042;-78
2022/12/26 06:07:58;;;;;;;5.55;3.05;;;;;;;;;;4937146;29;20034;-78
2022/12/26 06:10:25;;;;;;;8.25;3.78;;;;;;;;;;4955502;29;20031;-78
2022/12/26 06:12:52;;;;;;;6.60;3.03;;;;;;;;;;4954916;29;20032;-78
2022/12/26 06:15:17;;;;;;;9.30;3.45;;;;;;;;;;4954291;29;20431;-78
2022/12/26 06:17:43;;;;;;;9.52;3.72;;;;;;;;;;4952026;29;20039;-79
2022/12/26 06:20:09;;;;;;;5.70;3.38;;;;;;;;;;4936859;29;20058;-78
2022/12/26 06:22:35;;;;;;;8.77;3.33;;;;;;;;;;4937012;29;20035;-78
2022/12/26 06:25:01;;;;;;;7.07;3.60;;;;;;;;;;4952957;28;20321;-77
2022/12/26 06:27:27;;;;;;;8.85;3.10;;;;;;;;;;4954395;29;20467;-77
2022/12/26 06:29:52;;;;;;;5.93;3.25;;;;;;;;;;4952063;29;20111;-78
2022/12/26 06:32:18;;;;;;;8.48;4.03;;;;;;;;;;4936303;29;20035;-78
2022/12/26 06:34:43;;;;;;;8.70;3.85;;;;;;;;;;4953273;28;20019;-78
2022/12/26 06:37:09;;;;;;;5.20;3.08;;;;;;;;;;4953636;29;20098;-78
2022/12/26 06:39:36;;;;;;;5.82;2.95;;;;;;;;;;4952360;29;20035;-79
2022/12/26 06:42:01;;;;;;;6.22;3.35;;;;;;;;;;4951065;28;20154;-78
2022/12/26 06:44:27;;;;;;;4.40;2.95;;;;;;;;;;4967842;28;20070;-80
2022/12/26 06:46:52;;;;;;;4.75;2.95;;;;;;;;;;4952946;29;20392;-78
2022/12/26 06:49:18;;;;;;;4.80;2.95;;;;;;;;;;4953235;29;20063;-77
2022/12/26 06:51:44;;;;;;;6.03;3.72;;;;;;;;;;4953690;29;20341;-78
2022/12/26 06:54:11;;;;;;;5.70;3.50;;;;;;;;;;4951792;29;20504;-78
2022/12/26 06:56:36;;;;;;;8.20;3.28;;;;;;;;;;4951631;29;20038;-77
2022/12/26 06:59:04;;;;;;;5.78;3.97;;;;;;;;;;4951469;29;20047;-78
2022/12/26 07:01:32;;;;;;;4.70;3.35;;;;;;;;;;4954019;29;20110;-78
2022/12/26 07:03:58;;;;;;;7.13;3.63;;;;;;;;;;4967780;28;20035;-78
2022/12/26 07:06:35;;;;;;;6.15;3.70;;;;;;;;;;4952499;28;20158;-77
2022/12/26 07:09:15;;;;;;;8.85;3.35;;;;;;;;;;4968501;28;20030;-79
2022/12/26 07:11:45;;;;;;;8.27;3.70;;;;;;;;;;4952302;29;20375;-77
2022/12/26 07:14:11;;;;;;;7.50;4.05;;;;;;;;;;4969830;28;20030;-78
2022/12/26 07:16:38;;;;;;;6.78;3.55;;;;;;;;;;4957162;29;20023;-77
2022/12/26 07:19:04;;;;;;;8.88;3.60;;;;;;;;;;4953164;29;20032;-78
2022/12/26 07:21:30;;;;;;;7.57;3.67;;;;;;;;;;4951825;29;20053;-77
2022/12/26 07:23:55;;;;;;;5.95;4.03;;;;;;;;;;4967694;28;20031;-78
2022/12/26 07:26:22;;;;;;;6.82;3.25;;;;;;;;;;4975098;28;20094;-77
2022/12/26 07:28:48;;;;;;;9.57;3.67;;;;;;;;;;4961146;28;20046;-77
2022/12/26 07:31:18;;;;;;;7.10;2.95;;;;;;;;;;4953719;29;20039;-77
2022/12/26 07:33:50;;;;;;;5.72;3.45;;;;;;;;;;4967505;28;20039;-77
2022/12/26 07:36:15;;;;;;;8.68;3.28;;;;;;;;;;4952570;28;20367;-79
2022/12/26 07:38:41;;;;;;;8.43;4.07;;;;;;;;;;4952904;28;20042;-77
2022/12/26 07:43:53;;;;;;;7.47;3.35;;;;;;;;;;4953319;29;20062;-78
2022/12/26 07:46:19;;;;;;;5.85;3.60;;;;;;;;;;4953167;29;20027;-78
2022/12/26 07:48:44;;;;;;;4.72;3.05;;;;;;;;;;4951710;29;20472;-78
2022/12/26 07:51:10;;;;;;;7.32;4.22;;;;;;;;;;4936312;29;20031;-78
2022/12/26 07:53:35;;;;;;;5.20;2.97;;;;;;;;;;4952216;28;20098;-78
2022/12/26 07:56:01;;;;;;;12.57;3.75;;;;;;;;;;4950649;28;20027;-78
2022/12/26 07:58:27;;;;;;;4.28;2.80;;;;;;;;;;4935084;29;20031;-78
2022/12/26 08:00:52;;;;;;;6.22;3.80;;;;;;;;;;4950757;28;20705;-78
2022/12/26 08:03:18;;;;;;;6.28;3.33;;;;;;;;;;4934675;29;20019;-78
2022/12/26 08:05:45;;;;;;;8.15;3.47;;;;;;;;;;4950431;29;20035;-78
2022/12/26 08:08:10;;;;;;;6.35;3.78;;;;;;;;;;4950392;29;20090;-78
2022/12/26 08:10:36;;;;;;;20.67;4.43;;;;;;;;;;4951722;29;20035;-77
2022/12/26 08:13:01;;;;;;;6.35;3.17;;;;;;;;;;4934013;29;20086;-78
2022/12/26 08:15:27;;;;;;;4.22;2.97;;;;;;;;;;4951867;29;20106;-78
2022/12/26 08:17:53;;;;;;;3.50;2.53;;;;;;;;;;4951426;28;20468;-78
2022/12/26 08:20:18;;;;;;;5.93;3.25;;;;;;;;;;4952046;29;20031;-77
2022/12/26 08:22:43;;;;;;;4.82;3.53;;;;;;;;;;4953037;29;20135;-78
2022/12/26 08:25:09;;;;;;;10.35;3.58;;;;;;;;;;4934482;29;20027;-77
2022/12/26 08:27:35;;;;;;;5.85;3.30;;;;;;;;;;4950159;29;20149;-77
2022/12/26 08:30:00;;;;;;;7.18;3.40;;;;;;;;;;4933880;29;20201;-78
2022/12/26 08:32:26;;;;;;;6.75;3.30;;;;;;;;;;4950150;29;20372;-77
2022/12/26 08:34:51;;;;;;;9.48;4.00;;;;;;;;;;4950120;29;20042;-77
2022/12/26 08:37:17;;;;;;;6.10;3.10;;;;;;;;;;4937370;29;20419;-77
2022/12/26 08:39:42;;;;;;;4.80;3.10;;;;;;;;;;4966110;28;20034;-77
2022/12/26 08:42:08;;;;;;;7.50;3.42;;;;;;;;;;4951516;29;20147;-78
2022/12/26 08:44:34;;;;;;;5.65;2.90;;;;;;;;;;4951231;28;20047;-78
2022/12/26 08:47:00;;;;;;;6.97;3.55;;;;;;;;;;4951210;29;20027;-78
2022/12/26 08:49:26;;;;;;;10.63;3.30;;;;;;;;;;4966504;28;20122;-78
2022/12/26 08:51:52;;;;;;;8.10;3.65;;;;;;;;;;4951264;28;20121;-77
2022/12/26 08:54:17;;;;;;;6.55;3.30;;;;;;;;;;4951129;29;20531;-79
2022/12/26 08:56:43;;;;;;;10.70;3.80;;;;;;;;;;4950605;29;20038;-78
2022/12/26 08:59:08;;;;;;;7.38;3.00;;;;;;;;;;4952224;29;20086;-78
2022/12/26 09:01:34;;;;;;;7.82;3.67;;;;;;;;;;4966402;28;20035;-78
2022/12/26 09:04:01;;;;;;;5.88;3.30;;;;;;;;;;4952270;28;20109;-78
2022/12/26 09:06:27;;;;;;;7.53;3.40;;;;;;;;;;4970839;28;20112;-78
2022/12/26 09:08:53;;;;;;;5.43;2.85;;;;;;;;;;4954774;29;20056;-78
2022/12/26 09:11:25;;;;;;;5.25;3.08;;;;;;;;;;4970177;28;20023;-80
2022/12/26 09:13:51;;;;;;;4.80;3.08;;;;;;;;;;4970267;28;20023;-79
2022/12/26 09:16:20;;;;;;;5.13;3.13;;;;;;;;;;4937847;29;20035;-79
2022/12/26 09:18:46;;;;;;;11.98;3.25;;;;;;;;;;4953242;29;20058;-78
2022/12/26 09:21:14;;;;;;;5.40;3.38;;;;;;;;;;4969604;28;20057;-78
2022/12/26 09:23:41;;;;;;;9.93;3.45;;;;;;;;;;4954521;29;20027;-78
2022/12/26 09:26:12;;;;;;;7.40;4.00;;;;;;;;;;4953122;29;20375;-79
2022/12/26 09:28:38;;;;;;;7.38;3.83;;;;;;;;;;4954574;29;20137;-77
2022/12/26 09:31:09;;;;;;;11.00;3.85;;;;;;;;;;4954756;29;20129;-78
2022/12/26 09:33:37;;;;;;;7.40;3.87;;;;;;;;;;4955767;29;20054;-78
2022/12/26 09:36:07;;;;;;;10.70;3.90;;;;;;;;;;4955073;29;20314;-78
2022/12/26 09:38:35;;;;;;;8.27;3.95;;;;;;;;;;4954979;29;20031;-79
2022/12/26 09:41:14;;;;;;;7.45;3.08;;;;;;;;;;4938041;29;20452;-78
2022/12/26 09:43:58;;;;;;;9.02;3.95;;;;;;;;;;4956258;29;20055;-77
2022/12/26 09:46:31;;;;;;;8.32;4.90;;;;;;;;;;4959923;29;20090;-78
2022/12/26 09:49:11;;;;;;;8.48;3.80;;;;;;;;;;4954963;29;20093;-78
2022/12/26 09:51:40;;;;;;;6.40;3.63;;;;;;;;;;4938326;29;20129;-79
2022/12/26 09:54:10;;;;;;;6.30;3.58;;;;;;;;;;4937054;29;20031;-78
2022/12/26 09:56:38;;;;;;;9.55;4.32;;;;;;;;;;4954154;28;20062;-78
2022/12/26 09:59:15;;;;;;;5.47;3.20;;;;;;;;;;4954146;29;20041;-78
2022/12/26 10:01:41;;;;;;;6.90;3.92;;;;;;;;;;4952611;29;20031;-77
2022/12/26 10:04:29;;;;;;;8.73;4.60;;;;;;;;;;4953775;28;20050;-78
2022/12/26 10:07:13;;;;;;;8.75;3.60;;;;;;;;;;4939769;29;20043;-79
2022/12/26 10:09:57;;;;;;;5.85;3.90;;;;;;;;;;4955807;29;20031;-79
2022/12/26 10:12:47;;;;;;;11.20;3.88;;;;;;;;;;4936909;29;20027;-79
2022/12/26 10:15:34;;;;;;;7.30;3.67;;;;;;;;;;4942337;28;20480;-78
2022/12/26 10:18:37;;;;;;;12.25;3.53;;;;;;;;;;4952407;29;20127;-79
2022/12/26 10:21:28;;;;;;;7.13;3.42;;;;;;;;;;4953965;29;20039;-77
2022/12/26 10:24:20;;;;;;;12.02;4.10;;;;;;;;;;4952071;29;20110;-78
2022/12/26 10:27:00;;;;;;;5.45;2.92;;;;;;;;;;4927604;29;20031;-77
2022/12/26 10:29:37;;;;;;;10.30;3.50;;;;;;;;;;4936376;29;20031;-78
2022/12/26 10:32:22;;;;;;;5.57;3.08;;;;;;;;;;4936137;29;20027;-77
2022/12/26 10:34:48;;;;;;;5.80;3.03;;;;;;;;;;4953470;29;20069;-78
2022/12/26 10:37:24;;;;;;;6.18;3.40;;;;;;;;;;4953475;29;20019;-78
2022/12/26 10:40:26;;;;;;;6.75;3.22;;;;;;;;;;4951898;29;20053;-78
2022/12/26 10:43:09;;;;;;;4.70;2.67;;;;;;;;;;4953480;29;20058;-78
2022/12/26 10:45:53;;;;;;;8.02;3.00;;;;;;;;;;4968560;28;20108;-78
2022/12/26 10:48:19;;;;;;;9.73;2.95;;;;;;;;;;4969884;28;20126;-79
2022/12/26 10:50:47;;;;;;;6.07;2.80;;;;;;;;;;4954579;29;20582;-79
2022/12/26 10:53:15;;;;;;;4.60;2.88;;;;;;;;;;4953611;29;20039;-79
2022/12/26 10:55:40;;;;;;;7.25;3.17;;;;;;;;;;4954526;29;20511;-78
2022/12/26 10:58:16;;;;;;;4.50;2.90;;;;;;;;;;4956667;28;20031;-79
2022/12/26 11:00:42;;;;;;;3.00;2.17;;;;;;;;;;4956640;29;20031;-79
2022/12/26 11:03:11;;;;;;;2.38;2.00;;;;;;;;;;4955107;29;20106;-78
2022/12/26 11:05:43;;;;;;;4.60;2.22;;;;;;;;;;4951901;28;20085;-77
2022/12/26 11:08:16;;;;;;;4.18;1.83;;;;;;;;;;4953075;29;20031;-78
2022/12/26 11:11:00;;;;;;;4.93;2.22;;;;;;;;;;4951232;29;20142;-78
2022/12/26 11:13:26;;;;;;;3.10;1.98;;;;;;;;;;4966981;28;20178;-78
2022/12/26 11:15:52;;;;;;;2.70;2.03;;;;;;;;;;4967578;28;20145;-78
2022/12/26 11:18:37;;;;;;;3.25;2.10;;;;;;;;;;4952456;29;20057;-79
2022/12/26 11:21:17;;;;;;;2.95;1.63;;;;;;;;;;4951210;29;20043;-79
2022/12/26 11:23:45;;;;;;;3.80;2.60;;;;;;;;;;4953154;29;20110;-79
2022/12/26 11:26:31;;;;;;;2.63;1.80;;;;;;;;;;4952647;29;20031;-78
2022/12/26 11:29:16;;;;;;;3.78;2.15;;;;;;;;;;4952023;29;20028;-78
2022/12/26 11:31:58;;;;;;;2.45;1.85;;;;;;;;;;4953375;29;20114;-78
2022/12/26 11:34:44;;;;;;;;;;;;;;;;;;4968222;28;20038;-79
2022/12/26 11:37:29;;;;;;;6.57;2.10;;;;;;;;;;4964336;28;20333;-78
2022/12/26 11:39:56;;;;;;;2.58;1.77;;;;;;;;;;4950613;29;20045;-78
2022/12/26 11:42:24;;;;;;;3.47;1.70;;;;;;;;;;4934868;29;20063;-78
2022/12/26 11:44:53;;;;;;;3.00;1.75;;;;;;;;;;4934481;29;20134;-78
2022/12/26 11:47:29;;;;;;;4.35;2.03;;;;;;;;;;4934928;29;20031;-79
2022/12/26 11:50:16;;;;;;;6.05;2.50;;;;;;;;;;4951071;29;20031;-79
2022/12/26 11:52:42;;;;;;;6.80;2.55;;;;;;;;;;4935180;29;20102;-78
2022/12/26 11:55:21;;;;;;;6.05;2.50;;;;;;;;;;4952254;28;20098;-78
2022/12/26 11:58:00;;;;;;;3.45;1.75;;;;;;;;;;4951553;29;20114;-78
2022/12/26 12:00:27;;;;;;;2.38;1.70;;;;;;;;;;4951536;29;20098;-78
2022/12/26 12:02:53;;;;;;;4.13;2.35;;;;;;;;;;4934500;29;20039;-78
2022/12/26 12:05:27;;;;;;;4.68;2.08;;;;;;;;;;4949842;28;20050;-79
2022/12/26 12:08:02;;;;;;;3.75;2.10;;;;;;;;;;4934383;29;20039;-79
2022/12/26 12:11:03;;;;;;;4.47;2.33;;;;;;;;;;4934217;29;20113;-78
2022/12/26 12:13:47;;;;;;;5.00;2.00;;;;;;;;;;4910318;29;20041;-78
2022/12/26 12:16:36;;;;;;;3.25;2.25;;;;;;;;;;4934441;29;20035;-78
2022/12/26 12:19:15;;;;;;;4.22;2.85;;;;;;;;;;4934587;29;20035;-78
2022/12/26 12:21:50;;;;;;;4.53;2.05;;;;;;;;;;4935100;29;20123;-79
2022/12/26 12:24:22;;;;;;;3.00;1.73;;;;;;;;;;4935076;29;20023;-78
2022/12/26 12:26:57;;;;;;;4.47;2.30;;;;;;;;;;4950584;29;20045;-78
2022/12/26 12:29:25;;;;;;;4.68;2.30;;;;;;;;;;4952508;29;20019;-78
2022/12/26 12:32:13;;;;;;;3.47;2.00;;;;;;;;;;4934402;29;20062;-78
2022/12/26 12:35:04;;;;;;;5.28;2.22;;;;;;;;;;4935185;29;20023;-77
2022/12/26 12:38:00;;;;;;;4.93;2.50;;;;;;;;;;4943614;29;20141;-78
2022/12/26 12:41:13;;;;;;;3.38;2.42;;;;;;;;;;4939370;29;20031;-79
2022/12/26 12:44:00;;;;;;;3.78;2.20;;;;;;;;;;4913639;29;20062;-78
2022/12/26 12:47:00;;;;;;;4.53;2.10;;;;;;;;;;4956862;29;20495;-77
2022/12/26 12:49:29;;;;;;;4.97;2.30;;;;;;;;;;4956185;29;20545;-78
2022/12/26 12:52:12;;;;;;;4.00;2.25;;;;;;;;;;4938655;29;20031;-78
2022/12/26 12:54:49;;;;;;;3.95;2.05;;;;;;;;;;4939386;29;20381;-79
2022/12/26 12:57:30;;;;;;;6.20;2.70;;;;;;;;;;4937924;29;20429;-79
2022/12/26 13:00:23;;;;;;;4.55;2.92;;;;;;;;;;4955739;29;20144;-79
2022/12/26 13:03:00;;;;;;;3.28;2.45;;;;;;;;;;4954111;29;20027;-78
2022/12/26 13:05:38;;;;;;;6.03;2.20;;;;;;;;;;4955546;29;20027;-78
2022/12/26 13:08:09;;;;;;;3.97;2.13;;;;;;;;;;4955026;29;20035;-78
2022/12/26 13:10:43;;;;;;;3.00;2.20;;;;;;;;;;4938290;29;20069;-78
2022/12/26 13:13:18;;;;;;;5.35;2.17;;;;;;;;;;4955232;29;20030;-78
2022/12/26 13:15:48;;;;;;;3.55;2.58;;;;;;;;;;4955489;29;20105;-79
2022/12/26 13:18:21;;;;;;;4.55;1.85;;;;;;;;;;4953654;28;20023;-78
2022/12/26 13:20:54;;;;;;;4.68;2.25;;;;;;;;;;4954985;29;20486;-78
2022/12/26 13:26:15;;;;;;;3.13;2.35;;;;;;;;;;4954762;29;20050;-79
2022/12/26 13:29:31;;;;;;;3.47;2.20;;;;;;;;;;4953087;29;20031;-79
2022/12/26 13:31:59;;;;;;;2.75;1.92;;;;;;;;;;4922055;29;20063;-78
2022/12/26 13:34:25;;;;;;;4.10;2.17;;;;;;;;;;4953006;28;20023;-79
2022/12/26 13:36:53;;;;;;;3.80;1.77;;;;;;;;;;4937276;29;20045;-78
2022/12/26 13:39:28;;;;;;;5.78;2.38;;;;;;;;;;4953121;29;20027;-79
2022/12/26 13:44:39;;;;;;;6.60;2.17;;;;;;;;;;4954449;29;20124;-79
2022/12/26 13:47:05;;;;;;;3.72;2.30;;;;;;;;;;4954249;29;20401;-79
2022/12/26 13:49:38;;;;;;;4.57;2.13;;;;;;;;;;4953458;29;20087;-79
2022/12/26 13:52:19;;;;;;;4.18;2.38;;;;;;;;;;4954219;29;20185;-79
2022/12/26 13:54:47;;;;;;;2.47;2.20;;;;;;;;;;4954566;29;20030;-79
2022/12/26 13:57:42;;;;;;;2.92;1.90;;;;;;;;;;4952370;29;20027;-79
2022/12/26 14:00:23;;;;;;;3.15;2.08;;;;;;;;;;4952443;29;20399;-79
2022/12/26 14:02:58;;;;;;;2.33;1.90;;;;;;;;;;4968768;28;20137;-80
2022/12/26 14:05:35;;;;;;;2.88;2.03;;;;;;;;;;4952522;29;20107;-78
2022/12/26 14:08:32;;;;;;;4.20;2.30;;;;;;;;;;4954162;29;20110;-78
2022/12/26 14:11:21;;;;;;;3.22;2.30;;;;;;;;;;4954004;29;20031;-78
2022/12/26 14:14:16;;;;;;;3.78;1.80;;;;;;;;;;4955438;28;20066;-79
2022/12/26 14:17:07;;;;;;;2.72;2.10;;;;;;;;;;4953450;29;20380;-79
2022/12/26 14:19:42;;;;;;;4.18;2.17;;;;;;;;;;4946440;29;20058;-78
2022/12/26 14:22:32;;;;;;;3.22;1.75;;;;;;;;;;4952811;29;20034;-78
2022/12/26 14:25:44;;;;;;;3.25;1.75;;;;;;;;;;4954489;28;20475;-78
2022/12/26 14:28:09;;;;;;;3.20;1.77;;;;;;;;;;4953523;29;20033;-79
2022/12/26 14:31:16;;;;;;;5.70;2.25;;;;;;;;;;4954633;29;20023;-79
2022/12/26 14:34:23;;;;;;;3.92;2.40;;;;;;;;;;4955539;29;20027;-77
2022/12/26 14:36:58;;;;;;;3.90;2.17;;;;;;;;;;4892731;29;20635;-79
2022/12/26 14:39:39;;;;;;;3.17;1.88;;;;;;;;;;4875196;29;20531;-78
2022/12/26 14:44:54;;;;;;;2.88;2.20;;;;;;;;;;4934467;29;20114;-79
2022/12/26 14:47:45;;;;;;;6.68;2.67;;;;;;;;;;4933163;29;20126;-78
2022/12/26 14:50:36;;;;;;;5.10;2.05;;;;;;;;;;4934139;29;20031;-79
2022/12/26 14:53:23;;;;;;;2.63;1.90;;;;;;;;;;4933914;29;20333;-79
2022/12/26 14:55:52;;;;;;;2.75;1.75;;;;;;;;;;4933463;29;20690;-79
2022/12/26 14:58:38;;;;;;;3.67;1.77;;;;;;;;;;4934474;29;20471;-78
2022/12/26 15:01:19;;;;;;;3.30;2.03;;;;;;;;;;4936189;29;20048;-78
2022/12/26 15:04:09;;;;;;;2.15;1.70;;;;;;;;;;4934493;29;20147;-79
2022/12/26 15:06:56;;;;;;;3.42;1.83;;;;;;;;;;4935411;29;20034;-78
2022/12/26 15:09:40;;;;;;;4.22;2.10;;;;;;;;;;4934726;29;20444;-78
2022/12/26 15:12:27;;;;;;;1.70;1.60;;;;;;;;;;4932826;29;20527;-78
2022/12/26 15:14:52;;;;;;;3.60;1.80;;;;;;;;;;4933759;29;20031;-78
2022/12/26 15:17:39;;;;;;;3.20;1.63;;;;;;;;;;4933606;29;20020;-77
2022/12/26 15:20:34;;;;;;;6.13;2.03;;;;;;;;;;4947895;29;20035;-77
2022/12/26 15:23:10;;;;;;;3.72;2.45;;;;;;;;;;4951204;29;20038;-78
2022/12/26 15:25:56;;;;;;;3.80;2.20;;;;;;;;;;4935226;29;20118;-78
2022/12/26 15:28:52;;;;;;;3.78;2.25;;;;;;;;;;4949962;29;20094;-77
2022/12/26 15:31:35;;;;;;;4.15;2.25;;;;;;;;;;4934716;29;20051;-78
2022/12/26 15:34:31;;;;;;;3.55;1.70;;;;;;;;;;4952218;29;20019;-77
2022/12/26 15:37:10;;;;;;;3.63;2.42;;;;;;;;;;4935013;29;20030;-77
2022/12/26 15:40:04;;;;;;;4.43;1.58;;;;;;;;;;4934918;29;20027;-79
2022/12/26 15:42:38;;;;;;;3.83;2.00;;;;;;;;;;4950727;29;20031;-78
2022/12/26 15:45:21;;;;;;;3.28;2.05;;;;;;;;;;4951552;29;20040;-78
2022/12/26 15:47:56;;;;;;;;;;;;;;;;;;4934881;29;20110;-79
2022/12/26 15:51:08;;;;;;;3.20;1.98;;;;;;;;;;4951705;28;19910;-78
2022/12/26 15:54:01;;;;;;;3.05;1.88;;;;;;;;;;4908189;29;20027;-76
2022/12/26 15:56:27;;;;;;;;;;;;;;;;;;4952168;29;20027;-77
2022/12/26 15:59:14;;;;;;;4.63;1.90;;;;;;;;;;4934592;29;19914;-78
2022/12/26 16:01:42;;;;;;;6.57;2.30;;;;;;;;;;4934353;29;20056;-78
2022/12/26 16:04:24;;;;;;;4.65;2.38;;;;;;;;;;4950452;29;20045;-77
2022/12/26 16:07:07;;;;;;;3.38;1.80;;;;;;;;;;4934535;29;20029;-77
2022/12/26 16:09:45;;;;;;;4.60;1.80;;;;;;;;;;4950124;28;20367;-77
2022/12/26 16:12:34;;;;;;;3.42;2.03;;;;;;;;;;4951680;29;20134;-78
2022/12/26 16:15:09;;;;;;;3.10;2.10;;;;;;;;;;4940584;29;20562;-78
2022/12/26 16:17:36;;;;;;;3.60;2.08;;;;;;;;;;4934090;29;20039;-78
2022/12/26 16:23:15;;;;;;;4.82;2.35;;;;;;;;;;4951356;29;20042;-78
2022/12/26 16:25:49;;;;;;;4.28;2.22;;;;;;;;;;4950303;29;20098;-78
2022/12/26 16:28:18;;;;;;;2.55;1.77;;;;;;;;;;4934843;29;20117;-78
2022/12/26 16:30:43;;;;;;;6.38;2.47;;;;;;;;;;4951570;29;20035;-79
2022/12/26 16:33:13;;;;;;;3.17;2.20;;;;;;;;;;4934307;29;20186;-77
2022/12/26 16:35:40;;;;;;;3.92;2.03;;;;;;;;;;4951650;29;20098;-79
2022/12/26 16:38:12;;;;;;;3.67;1.85;;;;;;;;;;4951340;29;20031;-78
2022/12/26 16:40:42;;;;;;;4.18;2.55;;;;;;;;;;4950514;29;20327;-77
2022/12/26 16:43:17;;;;;;;4.30;1.88;;;;;;;;;;4950211;29;20035;-77
2022/12/26 16:45:47;;;;;;;3.63;2.08;;;;;;;;;;4950593;29;20098;-78
2022/12/26 16:48:16;;;;;;;4.10;2.40;;;;;;;;;;4966027;28;20019;-78
2022/12/26 16:51:03;;;;;;;2.72;1.95;;;;;;;;;;4966218;28;20030;-77
2022/12/26 16:53:35;;;;;;;5.22;2.65;;;;;;;;;;4949910;28;20035;-77
2022/12/26 16:56:15;;;;;;;6.13;2.10;;;;;;;;;;4950145;29;20031;-79
2022/12/26 16:58:41;;;;;;;3.40;1.92;;;;;;;;;;4950181;29;20035;-78
2022/12/26 17:01:10;;;;;;;4.65;2.35;;;;;;;;;;4951764;29;20460;-78
2022/12/26 17:03:56;;;;;;;4.05;2.33;;;;;;;;;;4949869;29;20158;-78
2022/12/26 17:06:39;;;;;;;2.17;1.95;;;;;;;;;;4965510;28;20111;-77
2022/12/26 17:09:13;;;;;;;2.35;2.10;;;;;;;;;;4966015;28;20056;-77
2022/12/26 17:11:50;;;;;;;3.10;1.80;;;;;;;;;;4950176;29;20387;-78
2022/12/26 17:14:24;;;;;;;3.03;1.92;;;;;;;;;;4950429;28;20033;-78
2022/12/26 17:17:02;;;;;;;3.22;2.13;;;;;;;;;;4951787;29;20480;-77
2022/12/26 17:19:30;;;;;;;3.67;2.20;;;;;;;;;;4966000;28;20372;-78
2022/12/26 17:22:14;;;;;;;4.15;2.20;;;;;;;;;;4966202;28;20023;-77
2022/12/26 17:24:48;;;;;;;3.40;2.13;;;;;;;;;;4950690;28;20027;-77
2022/12/26 17:27:22;;;;;;;2.75;1.75;;;;;;;;;;4953442;29;20403;-78
2022/12/26 17:29:59;;;;;;;3.72;1.83;;;;;;;;;;4970770;28;20099;-78
2022/12/26 17:32:25;;;;;;;5.50;2.42;;;;;;;;;;4955096;29;20487;-78
2022/12/26 17:34:50;;;;;;;2.58;2.00;;;;;;;;;;4957283;29;20051;-78
2022/12/26 17:37:21;;;;;;;4.53;1.92;;;;;;;;;;4954915;29;20037;-78